Asheville, North Carolina
Current Conditions -  °F | °C
As of 3:54 PM on Thursday 23 Oct 2014 (Local Time) from KAVL Reporting Station
Clear Clear  
Wind Chill: 64°   Ceiling: Unl
Heat Index: 64°   Visibility: 10mi
Dew Point: 33°   Wind: 20mph
Humidity: 31%   Direction: 340°NNW
Pressure: 30.04"   Gusts: NA
Location:  35.6°N, 82.55°W
Report Text: KAVL 231954Z 34017KT 10SM CLR 18/01 A3004 RMK AO2 PK WND 34026/1902 SLP162 T01780006
Loading
Personal Weather Stations






























Interactive Weather Map New forecast layout! Learn more

10-Day Weather Forecast

Advertisements
Track Severe Weather on mobile